sensor_id;sensor_type;location;lat;lon;timestamp;P1;durP1;ratioP1;P2;durP2;ratioP2
15876;SDS011;8037;51.666;7.834;2023-05-14T00:01:09;4.03;;;3.83;;
15876;SDS011;8037;51.666;7.834;2023-05-14T00:03:34;8.10;;;5.00;;
15876;SDS011;8037;51.666;7.834;2023-05-14T00:06:01;5.90;;;4.50;;
15876;SDS011;8037;51.666;7.834;2023-05-14T00:08:27;5.13;;;4.50;;
15876;SDS011;8037;51.666;7.834;2023-05-14T00:10:53;5.43;;;4.83;;
15876;SDS011;8037;51.666;7.834;2023-05-14T00:13:19;11.63;;;4.90;;
15876;SDS011;8037;51.666;7.834;2023-05-14T00:15:45;6.07;;;4.80;;
15876;SDS011;8037;51.666;7.834;2023-05-14T00:18:11;5.40;;;4.90;;
15876;SDS011;8037;51.666;7.834;2023-05-14T00:20:37;8.93;;;5.10;;
15876;SDS011;8037;51.666;7.834;2023-05-14T00:23:03;7.93;;;4.40;;
15876;SDS011;8037;51.666;7.834;2023-05-14T00:25:29;5.47;;;5.07;;
15876;SDS011;8037;51.666;7.834;2023-05-14T00:27:55;8.93;;;5.60;;
15876;SDS011;8037;51.666;7.834;2023-05-14T00:30:21;7.40;;;5.60;;
15876;SDS011;8037;51.666;7.834;2023-05-14T00:32:47;5.80;;;5.30;;
15876;SDS011;8037;51.666;7.834;2023-05-14T00:35:13;6.17;;;4.33;;
15876;SDS011;8037;51.666;7.834;2023-05-14T00:37:39;6.30;;;5.77;;
15876;SDS011;8037;51.666;7.834;2023-05-14T00:40:05;6.10;;;5.60;;
15876;SDS011;8037;51.666;7.834;2023-05-14T00:42:32;5.70;;;5.27;;
15876;SDS011;8037;51.666;7.834;2023-05-14T00:44:58;7.20;;;5.43;;
15876;SDS011;8037;51.666;7.834;2023-05-14T00:47:24;5.80;;;5.30;;
15876;SDS011;8037;51.666;7.834;2023-05-14T00:49:50;7.13;;;5.90;;
15876;SDS011;8037;51.666;7.834;2023-05-14T00:52:16;8.03;;;6.67;;
15876;SDS011;8037;51.666;7.834;2023-05-14T00:54:43;8.23;;;6.10;;
15876;SDS011;8037;51.666;7.834;2023-05-14T00:57:10;7.50;;;6.30;;
15876;SDS011;8037;51.666;7.834;2023-05-14T00:59:36;8.20;;;6.93;;
15876;SDS011;8037;51.666;7.834;2023-05-14T01:02:04;7.13;;;6.53;;
15876;SDS011;8037;51.666;7.834;2023-05-14T01:04:30;7.57;;;6.87;;
15876;SDS011;8037;51.666;7.834;2023-05-14T01:07:00;6.03;;;5.53;;
15876;SDS011;8037;51.666;7.834;2023-05-14T01:14:57;6.07;;;5.57;;
15876;SDS011;8037;51.666;7.834;2023-05-14T01:17:27;6.43;;;5.73;;
15876;SDS011;8037;51.666;7.834;2023-05-14T01:19:54;8.10;;;6.03;;
15876;SDS011;8037;51.666;7.834;2023-05-14T01:22:21;6.70;;;6.10;;
15876;SDS011;8037;51.666;7.834;2023-05-14T01:24:47;9.37;;;6.13;;
15876;SDS011;8037;51.666;7.834;2023-05-14T01:29:48;9.13;;;5.17;;
15876;SDS011;8037;51.666;7.834;2023-05-14T01:32:16;5.87;;;5.27;;
15876;SDS011;8037;51.666;7.834;2023-05-14T01:34:42;9.43;;;6.20;;
15876;SDS011;8037;51.666;7.834;2023-05-14T01:37:09;5.50;;;5.00;;
15876;SDS011;8037;51.666;7.834;2023-05-14T01:39:36;10.03;;;5.97;;
15876;SDS011;8037;51.666;7.834;2023-05-14T01:42:02;7.30;;;5.87;;
15876;SDS011;8037;51.666;7.834;2023-05-14T01:44:29;9.13;;;6.07;;
15876;SDS011;8037;51.666;7.834;2023-05-14T01:46:55;9.50;;;6.20;;
15876;SDS011;8037;51.666;7.834;2023-05-14T01:49:21;6.40;;;5.90;;
15876;SDS011;8037;51.666;7.834;2023-05-14T01:51:47;7.40;;;6.20;;
15876;SDS011;8037;51.666;7.834;2023-05-14T01:54:13;6.40;;;5.77;;
15876;SDS011;8037;51.666;7.834;2023-05-14T01:56:39;6.90;;;5.90;;
15876;SDS011;8037;51.666;7.834;2023-05-14T01:59:04;14.20;;;6.83;;
15876;SDS011;8037;51.666;7.834;2023-05-14T02:01:30;8.40;;;5.63;;
15876;SDS011;8037;51.666;7.834;2023-05-14T02:03:57;9.60;;;6.03;;
15876;SDS011;8037;51.666;7.834;2023-05-14T02:06:23;8.97;;;4.80;;
15876;SDS011;8037;51.666;7.834;2023-05-14T02:08:50;6.03;;;5.53;;
15876;SDS011;8037;51.666;7.834;2023-05-14T02:11:15;6.57;;;5.97;;
15876;SDS011;8037;51.666;7.834;2023-05-14T02:13:41;6.20;;;5.63;;
15876;SDS011;8037;51.666;7.834;2023-05-14T02:16:07;5.77;;;5.27;;
15876;SDS011;8037;51.666;7.834;2023-05-14T02:18:33;7.63;;;5.93;;
15876;SDS011;8037;51.666;7.834;2023-05-14T02:20:59;7.30;;;5.23;;
15876;SDS011;8037;51.666;7.834;2023-05-14T02:23:25;8.33;;;5.93;;
15876;SDS011;8037;51.666;7.834;2023-05-14T02:25:51;6.63;;;5.90;;
15876;SDS011;8037;51.666;7.834;2023-05-14T02:28:17;7.33;;;6.10;;
15876;SDS011;8037;51.666;7.834;2023-05-14T02:30:43;6.60;;;6.10;;
15876;SDS011;8037;51.666;7.834;2023-05-14T02:33:09;6.90;;;5.40;;
15876;SDS011;8037;51.666;7.834;2023-05-14T02:35:35;7.80;;;6.23;;
15876;SDS011;8037;51.666;7.834;2023-05-14T02:38:01;4.90;;;4.50;;
15876;SDS011;8037;51.666;7.834;2023-05-14T02:40:27;7.97;;;5.20;;
15876;SDS011;8037;51.666;7.834;2023-05-14T02:42:52;5.97;;;5.47;;
15876;SDS011;8037;51.666;7.834;2023-05-14T02:45:18;7.70;;;6.50;;
15876;SDS011;8037;51.666;7.834;2023-05-14T02:47:45;6.20;;;5.20;;
15876;SDS011;8037;51.666;7.834;2023-05-14T02:50:11;5.97;;;5.47;;
15876;SDS011;8037;51.666;7.834;2023-05-14T02:52:36;15.07;;;5.70;;
15876;SDS011;8037;51.666;7.834;2023-05-14T02:55:03;11.43;;;5.90;;
15876;SDS011;8037;51.666;7.834;2023-05-14T02:57:28;6.47;;;5.40;;
15876;SDS011;8037;51.666;7.834;2023-05-14T02:59:54;6.43;;;5.67;;
15876;SDS011;8037;51.666;7.834;2023-05-14T03:02:20;6.47;;;5.10;;
15876;SDS011;8037;51.666;7.834;2023-05-14T03:04:46;7.97;;;6.90;;
15876;SDS011;8037;51.666;7.834;2023-05-14T03:07:12;10.70;;;5.40;;
15876;SDS011;8037;51.666;7.834;2023-05-14T03:09:38;5.53;;;4.93;;
15876;SDS011;8037;51.666;7.834;2023-05-14T03:12:04;11.63;;;6.43;;
15876;SDS011;8037;51.666;7.834;2023-05-14T03:14:30;6.50;;;5.80;;
15876;SDS011;8037;51.666;7.834;2023-05-14T03:16:56;5.83;;;5.37;;
15876;SDS011;8037;51.666;7.834;2023-05-14T03:19:22;6.53;;;5.77;;
15876;SDS011;8037;51.666;7.834;2023-05-14T03:21:48;6.70;;;5.90;;
15876;SDS011;8037;51.666;7.834;2023-05-14T03:24:14;4.70;;;4.40;;
15876;SDS011;8037;51.666;7.834;2023-05-14T03:26:40;12.33;;;5.40;;
15876;SDS011;8037;51.666;7.834;2023-05-14T03:29:06;8.33;;;5.47;;
15876;SDS011;8037;51.666;7.834;2023-05-14T03:31:33;6.97;;;6.27;;
15876;SDS011;8037;51.666;7.834;2023-05-14T03:33:59;6.20;;;5.10;;
15876;SDS011;8037;51.666;7.834;2023-05-14T03:36:25;6.93;;;5.77;;
15876;SDS011;8037;51.666;7.834;2023-05-14T03:38:51;6.00;;;5.00;;
15876;SDS011;8037;51.666;7.834;2023-05-14T03:41:17;6.37;;;5.67;;
15876;SDS011;8037;51.666;7.834;2023-05-14T03:43:43;10.40;;;5.87;;
15876;SDS011;8037;51.666;7.834;2023-05-14T03:46:09;11.33;;;6.33;;
15876;SDS011;8037;51.666;7.834;2023-05-14T03:48:35;12.50;;;5.47;;
15876;SDS011;8037;51.666;7.834;2023-05-14T03:51:01;6.63;;;5.40;;
15876;SDS011;8037;51.666;7.834;2023-05-14T03:53:27;6.40;;;5.83;;
15876;SDS011;8037;51.666;7.834;2023-05-14T03:55:53;10.03;;;5.97;;
15876;SDS011;8037;51.666;7.834;2023-05-14T03:58:19;14.63;;;4.53;;
15876;SDS011;8037;51.666;7.834;2023-05-14T04:00:45;6.30;;;5.80;;
15876;SDS011;8037;51.666;7.834;2023-05-14T04:03:11;8.20;;;5.90;;
15876;SDS011;8037;51.666;7.834;2023-05-14T04:05:36;10.30;;;5.63;;
15876;SDS011;8037;51.666;7.834;2023-05-14T04:08:02;5.93;;;5.30;;
15876;SDS011;8037;51.666;7.834;2023-05-14T04:10:29;5.93;;;5.33;;
15876;SDS011;8037;51.666;7.834;2023-05-14T04:12:56;6.00;;;5.50;;
15876;SDS011;8037;51.666;7.834;2023-05-14T04:15:22;9.53;;;4.83;;
15876;SDS011;8037;51.666;7.834;2023-05-14T04:17:48;8.67;;;4.60;;
15876;SDS011;8037;51.666;7.834;2023-05-14T04:20:14;5.87;;;5.33;;
15876;SDS011;8037;51.666;7.834;2023-05-14T04:22:39;5.67;;;5.17;;
15876;SDS011;8037;51.666;7.834;2023-05-14T04:25:05;7.13;;;5.83;;
15876;SDS011;8037;51.666;7.834;2023-05-14T04:27:32;6.53;;;5.93;;
15876;SDS011;8037;51.666;7.834;2023-05-14T04:29:58;8.13;;;5.07;;
15876;SDS011;8037;51.666;7.834;2023-05-14T04:32:24;6.33;;;4.93;;
15876;SDS011;8037;51.666;7.834;2023-05-14T04:34:51;7.17;;;5.03;;
15876;SDS011;8037;51.666;7.834;2023-05-14T04:37:17;4.43;;;4.23;;
15876;SDS011;8037;51.666;7.834;2023-05-14T04:39:43;5.47;;;5.07;;
15876;SDS011;8037;51.666;7.834;2023-05-14T04:42:08;6.03;;;5.33;;
15876;SDS011;8037;51.666;7.834;2023-05-14T04:44:35;5.43;;;4.90;;
15876;SDS011;8037;51.666;7.834;2023-05-14T04:47:01;10.73;;;5.30;;
15876;SDS011;8037;51.666;7.834;2023-05-14T04:49:28;5.63;;;4.57;;
15876;SDS011;8037;51.666;7.834;2023-05-14T04:51:54;7.20;;;4.47;;
15876;SDS011;8037;51.666;7.834;2023-05-14T04:54:20;7.43;;;5.13;;
15876;SDS011;8037;51.666;7.834;2023-05-14T04:56:46;5.47;;;5.07;;
15876;SDS011;8037;51.666;7.834;2023-05-14T04:59:11;4.90;;;4.50;;
15876;SDS011;8037;51.666;7.834;2023-05-14T05:01:37;6.33;;;4.93;;
15876;SDS011;8037;51.666;7.834;2023-05-14T05:04:03;5.10;;;4.70;;
15876;SDS011;8037;51.666;7.834;2023-05-14T05:06:29;5.70;;;4.40;;
15876;SDS011;8037;51.666;7.834;2023-05-14T05:08:56;4.33;;;4.03;;
15876;SDS011;8037;51.666;7.834;2023-05-14T05:11:22;6.27;;;3.90;;
15876;SDS011;8037;51.666;7.834;2023-05-14T05:13:47;4.70;;;4.30;;
15876;SDS011;8037;51.666;7.834;2023-05-14T05:16:13;5.30;;;4.50;;
15876;SDS011;8037;51.666;7.834;2023-05-14T05:18:39;4.33;;;3.70;;
15876;SDS011;8037;51.666;7.834;2023-05-14T05:21:05;4.70;;;4.30;;
15876;SDS011;8037;51.666;7.834;2023-05-14T05:23:31;4.40;;;4.00;;
15876;SDS011;8037;51.666;7.834;2023-05-14T05:25:57;3.97;;;3.50;;
15876;SDS011;8037;51.666;7.834;2023-05-14T05:28:22;3.33;;;3.13;;
15876;SDS011;8037;51.666;7.834;2023-05-14T05:30:48;3.67;;;3.37;;
15876;SDS011;8037;51.666;7.834;2023-05-14T05:33:14;6.33;;;3.63;;
15876;SDS011;8037;51.666;7.834;2023-05-14T05:35:40;6.00;;;3.10;;
15876;SDS011;8037;51.666;7.834;2023-05-14T05:38:07;3.63;;;3.40;;
15876;SDS011;8037;51.666;7.834;2023-05-14T05:40:33;2.93;;;2.73;;
15876;SDS011;8037;51.666;7.834;2023-05-14T05:42:59;5.70;;;3.40;;
15876;SDS011;8037;51.666;7.834;2023-05-14T05:45:25;4.23;;;3.93;;
15876;SDS011;8037;51.666;7.834;2023-05-14T05:47:50;3.57;;;2.83;;
15876;SDS011;8037;51.666;7.834;2023-05-14T05:50:16;4.30;;;2.90;;
15876;SDS011;8037;51.666;7.834;2023-05-14T05:52:42;6.97;;;3.50;;
15876;SDS011;8037;51.666;7.834;2023-05-14T05:55:08;4.30;;;3.90;;
15876;SDS011;8037;51.666;7.834;2023-05-14T05:57:34;5.60;;;4.50;;
15876;SDS011;8037;51.666;7.834;2023-05-14T06:00:00;4.80;;;3.80;;
15876;SDS011;8037;51.666;7.834;2023-05-14T06:02:33;5.27;;;4.80;;
15876;SDS011;8037;51.666;7.834;2023-05-14T06:04:59;5.47;;;4.97;;
15876;SDS011;8037;51.666;7.834;2023-05-14T06:07:25;12.80;;;5.83;;
15876;SDS011;8037;51.666;7.834;2023-05-14T06:09:51;4.93;;;4.50;;
15876;SDS011;8037;51.666;7.834;2023-05-14T06:12:17;6.70;;;4.70;;
15876;SDS011;8037;51.666;7.834;2023-05-14T06:14:43;7.90;;;4.67;;
15876;SDS011;8037;51.666;7.834;2023-05-14T06:17:09;7.87;;;4.50;;
15876;SDS011;8037;51.666;7.834;2023-05-14T06:19:35;4.20;;;3.80;;
15876;SDS011;8037;51.666;7.834;2023-05-14T06:22:01;8.40;;;5.57;;
15876;SDS011;8037;51.666;7.834;2023-05-14T06:24:26;5.50;;;5.00;;
15876;SDS011;8037;51.666;7.834;2023-05-14T06:26:52;10.20;;;5.30;;
15876;SDS011;8037;51.666;7.834;2023-05-14T06:29:18;5.80;;;5.17;;
15876;SDS011;8037;51.666;7.834;2023-05-14T06:31:44;5.30;;;4.67;;
15876;SDS011;8037;51.666;7.834;2023-05-14T06:34:10;5.20;;;4.80;;
15876;SDS011;8037;51.666;7.834;2023-05-14T06:36:36;19.93;;;6.17;;
15876;SDS011;8037;51.666;7.834;2023-05-14T06:39:02;11.53;;;4.57;;
15876;SDS011;8037;51.666;7.834;2023-05-14T06:41:28;4.57;;;4.27;;
15876;SDS011;8037;51.666;7.834;2023-05-14T06:43:54;9.53;;;4.67;;
15876;SDS011;8037;51.666;7.834;2023-05-14T06:46:20;5.90;;;4.90;;
15876;SDS011;8037;51.666;7.834;2023-05-14T06:48:46;4.77;;;4.37;;
15876;SDS011;8037;51.666;7.834;2023-05-14T06:51:12;12.33;;;4.60;;
15876;SDS011;8037;51.666;7.834;2023-05-14T06:53:38;12.87;;;4.10;;
15876;SDS011;8037;51.666;7.834;2023-05-14T06:56:04;4.40;;;4.07;;
15876;SDS011;8037;51.666;7.834;2023-05-14T06:58:30;6.30;;;4.17;;
15876;SDS011;8037;51.666;7.834;2023-05-14T07:00:57;5.07;;;4.60;;
15876;SDS011;8037;51.666;7.834;2023-05-14T07:03:22;3.70;;;3.40;;
15876;SDS011;8037;51.666;7.834;2023-05-14T07:05:48;7.33;;;4.30;;
15876;SDS011;8037;51.666;7.834;2023-05-14T07:08:14;4.90;;;4.30;;
15876;SDS011;8037;51.666;7.834;2023-05-14T07:10:40;4.03;;;3.77;;
15876;SDS011;8037;51.666;7.834;2023-05-14T07:13:06;14.57;;;4.30;;
15876;SDS011;8037;51.666;7.834;2023-05-14T07:15:32;4.97;;;4.33;;
15876;SDS011;8037;51.666;7.834;2023-05-14T07:17:58;5.07;;;3.63;;
15876;SDS011;8037;51.666;7.834;2023-05-14T07:20:24;4.33;;;3.83;;
15876;SDS011;8037;51.666;7.834;2023-05-14T07:22:51;3.77;;;3.57;;
15876;SDS011;8037;51.666;7.834;2023-05-14T07:25:17;4.97;;;4.53;;
15876;SDS011;8037;51.666;7.834;2023-05-14T07:27:43;3.17;;;2.87;;
15876;SDS011;8037;51.666;7.834;2023-05-14T07:30:09;5.47;;;3.43;;
15876;SDS011;8037;51.666;7.834;2023-05-14T07:32:35;5.20;;;3.80;;
15876;SDS011;8037;51.666;7.834;2023-05-14T07:35:01;4.30;;;3.63;;
15876;SDS011;8037;51.666;7.834;2023-05-14T07:37:27;3.47;;;3.27;;
15876;SDS011;8037;51.666;7.834;2023-05-14T07:39:53;4.30;;;4.00;;
15876;SDS011;8037;51.666;7.834;2023-05-14T07:42:20;3.97;;;3.67;;
15876;SDS011;8037;51.666;7.834;2023-05-14T07:44:46;3.37;;;3.20;;
15876;SDS011;8037;51.666;7.834;2023-05-14T07:47:12;3.90;;;3.60;;
15876;SDS011;8037;51.666;7.834;2023-05-14T07:49:38;4.50;;;3.00;;
15876;SDS011;8037;51.666;7.834;2023-05-14T07:52:03;3.87;;;3.57;;
15876;SDS011;8037;51.666;7.834;2023-05-14T07:54:29;3.70;;;3.50;;
15876;SDS011;8037;51.666;7.834;2023-05-14T07:56:55;3.67;;;3.20;;
15876;SDS011;8037;51.666;7.834;2023-05-14T07:59:21;3.53;;;3.33;;
15876;SDS011;8037;51.666;7.834;2023-05-14T08:01:47;3.87;;;3.40;;
15876;SDS011;8037;51.666;7.834;2023-05-14T08:04:13;3.33;;;3.13;;
15876;SDS011;8037;51.666;7.834;2023-05-14T08:06:40;2.90;;;2.63;;
15876;SDS011;8037;51.666;7.834;2023-05-14T08:09:06;5.60;;;2.73;;
15876;SDS011;8037;51.666;7.834;2023-05-14T08:11:32;3.20;;;2.90;;
15876;SDS011;8037;51.666;7.834;2023-05-14T08:13:58;3.10;;;2.90;;
15876;SDS011;8037;51.666;7.834;2023-05-14T08:16:24;3.20;;;3.00;;
15876;SDS011;8037;51.666;7.834;2023-05-14T08:18:50;4.80;;;2.73;;
15876;SDS011;8037;51.666;7.834;2023-05-14T08:21:16;3.43;;;3.13;;
15876;SDS011;8037;51.666;7.834;2023-05-14T08:23:42;3.30;;;3.10;;
15876;SDS011;8037;51.666;7.834;2023-05-14T08:26:08;3.83;;;2.70;;
15876;SDS011;8037;51.666;7.834;2023-05-14T08:28:34;4.97;;;2.83;;
15876;SDS011;8037;51.666;7.834;2023-05-14T08:31:00;3.30;;;3.00;;
15876;SDS011;8037;51.666;7.834;2023-05-14T08:33:26;8.50;;;2.80;;
15876;SDS011;8037;51.666;7.834;2023-05-14T08:35:52;2.40;;;2.30;;
15876;SDS011;8037;51.666;7.834;2023-05-14T08:38:18;3.10;;;2.97;;
15876;SDS011;8037;51.666;7.834;2023-05-14T08:40:48;3.07;;;2.87;;
15876;SDS011;8037;51.666;7.834;2023-05-14T08:43:18;4.07;;;3.20;;
15876;SDS011;8037;51.666;7.834;2023-05-14T08:45:45;2.83;;;2.63;;
15876;SDS011;8037;51.666;7.834;2023-05-14T08:48:11;2.93;;;2.40;;
15876;SDS011;8037;51.666;7.834;2023-05-14T08:50:39;2.77;;;2.57;;
15876;SDS011;8037;51.666;7.834;2023-05-14T08:53:05;4.97;;;2.10;;
15876;SDS011;8037;51.666;7.834;2023-05-14T08:55:31;2.20;;;2.10;;
15876;SDS011;8037;51.666;7.834;2023-05-14T08:57:58;2.60;;;2.50;;
15876;SDS011;8037;51.666;7.834;2023-05-14T09:00:24;2.80;;;2.70;;
15876;SDS011;8037;51.666;7.834;2023-05-14T09:02:50;4.17;;;2.70;;
15876;SDS011;8037;51.666;7.834;2023-05-14T09:05:16;2.10;;;2.00;;
15876;SDS011;8037;51.666;7.834;2023-05-14T09:07:44;2.20;;;2.10;;
15876;SDS011;8037;51.666;7.834;2023-05-14T09:10:10;2.13;;;1.90;;
15876;SDS011;8037;51.666;7.834;2023-05-14T09:12:36;2.20;;;2.10;;
15876;SDS011;8037;51.666;7.834;2023-05-14T09:15:01;2.67;;;2.57;;
15876;SDS011;8037;51.666;7.834;2023-05-14T09:17:28;2.70;;;2.50;;
15876;SDS011;8037;51.666;7.834;2023-05-14T09:19:54;2.97;;;2.10;;
15876;SDS011;8037;51.666;7.834;2023-05-14T09:22:20;2.43;;;2.30;;
15876;SDS011;8037;51.666;7.834;2023-05-14T09:25:00;2.00;;;1.90;;
15876;SDS011;8037;51.666;7.834;2023-05-14T09:27:28;2.60;;;2.40;;
15876;SDS011;8037;51.666;7.834;2023-05-14T09:29:54;4.93;;;2.27;;
15876;SDS011;8037;51.666;7.834;2023-05-14T09:32:20;3.57;;;2.47;;
15876;SDS011;8037;51.666;7.834;2023-05-14T09:34:46;2.17;;;2.07;;
15876;SDS011;8037;51.666;7.834;2023-05-14T09:37:12;1.60;;;1.50;;
15876;SDS011;8037;51.666;7.834;2023-05-14T09:39:38;1.60;;;1.50;;
15876;SDS011;8037;51.666;7.834;2023-05-14T09:42:04;2.23;;;2.10;;
15876;SDS011;8037;51.666;7.834;2023-05-14T09:44:30;2.10;;;1.40;;
15876;SDS011;8037;51.666;7.834;2023-05-14T09:47:00;2.03;;;1.93;;
15876;SDS011;8037;51.666;7.834;2023-05-14T09:49:26;1.90;;;1.80;;
15876;SDS011;8037;51.666;7.834;2023-05-14T09:51:52;2.03;;;1.93;;
15876;SDS011;8037;51.666;7.834;2023-05-14T09:54:18;2.00;;;1.90;;
15876;SDS011;8037;51.666;7.834;2023-05-14T09:56:44;1.87;;;1.77;;
15876;SDS011;8037;51.666;7.834;2023-05-14T09:59:10;1.60;;;1.50;;
15876;SDS011;8037;51.666;7.834;2023-05-14T10:01:36;2.60;;;2.37;;
15876;SDS011;8037;51.666;7.834;2023-05-14T10:04:02;1.63;;;1.53;;
15876;SDS011;8037;51.666;7.834;2023-05-14T10:06:32;2.40;;;2.07;;
15876;SDS011;8037;51.666;7.834;2023-05-14T10:09:00;1.90;;;1.80;;
15876;SDS011;8037;51.666;7.834;2023-05-14T10:11:27;2.17;;;1.97;;
15876;SDS011;8037;51.666;7.834;2023-05-14T10:14:42;1.83;;;1.73;;
15876;SDS011;8037;51.666;7.834;2023-05-14T10:16:50;2.37;;;1.93;;
15876;SDS011;8037;51.666;7.834;2023-05-14T10:19:17;2.10;;;2.00;;
15876;SDS011;8037;51.666;7.834;2023-05-14T10:21:44;1.97;;;1.87;;
15876;SDS011;8037;51.666;7.834;2023-05-14T10:24:10;2.00;;;1.90;;
15876;SDS011;8037;51.666;7.834;2023-05-14T10:26:37;4.30;;;2.40;;
15876;SDS011;8037;51.666;7.834;2023-05-14T10:29:04;3.33;;;1.80;;
15876;SDS011;8037;51.666;7.834;2023-05-14T10:37:02;2.03;;;1.83;;
15876;SDS011;8037;51.666;7.834;2023-05-14T10:42:07;2.20;;;2.10;;
15876;SDS011;8037;51.666;7.834;2023-05-14T10:44:34;2.13;;;2.00;;
15876;SDS011;8037;51.666;7.834;2023-05-14T10:47:05;2.20;;;2.00;;
15876;SDS011;8037;51.666;7.834;2023-05-14T10:49:31;1.77;;;1.70;;
15876;SDS011;8037;51.666;7.834;2023-05-14T10:51:58;1.80;;;1.70;;
15876;SDS011;8037;51.666;7.834;2023-05-14T10:54:26;5.30;;;1.50;;
15876;SDS011;8037;51.666;7.834;2023-05-14T10:56:52;1.70;;;1.60;;
15876;SDS011;8037;51.666;7.834;2023-05-14T10:59:18;1.43;;;1.43;;
15876;SDS011;8037;51.666;7.834;2023-05-14T11:01:44;1.83;;;1.40;;
15876;SDS011;8037;51.666;7.834;2023-05-14T11:04:17;1.77;;;1.67;;
15876;SDS011;8037;51.666;7.834;2023-05-14T11:06:43;6.27;;;2.30;;
15876;SDS011;8037;51.666;7.834;2023-05-14T11:09:10;2.20;;;2.10;;
15876;SDS011;8037;51.666;7.834;2023-05-14T11:11:37;1.50;;;1.40;;
15876;SDS011;8037;51.666;7.834;2023-05-14T11:14:03;1.60;;;1.50;;
15876;SDS011;8037;51.666;7.834;2023-05-14T11:16:29;2.67;;;1.67;;
15876;SDS011;8037;51.666;7.834;2023-05-14T11:19:02;1.00;;;1.00;;
15876;SDS011;8037;51.666;7.834;2023-05-14T11:21:28;1.40;;;1.27;;
15876;SDS011;8037;51.666;7.834;2023-05-14T11:23:55;12.97;;;1.90;;
15876;SDS011;8037;51.666;7.834;2023-05-14T11:26:22;1.17;;;1.13;;
15876;SDS011;8037;51.666;7.834;2023-05-14T11:28:48;1.57;;;1.47;;
15876;SDS011;8037;51.666;7.834;2023-05-14T11:31:14;1.40;;;1.30;;
15876;SDS011;8037;51.666;7.834;2023-05-14T11:33:40;2.87;;;1.40;;
15876;SDS011;8037;51.666;7.834;2023-05-14T11:36:06;1.40;;;1.40;;
15876;SDS011;8037;51.666;7.834;2023-05-14T11:38:32;1.47;;;1.37;;
15876;SDS011;8037;51.666;7.834;2023-05-14T11:40:58;1.20;;;1.10;;
15876;SDS011;8037;51.666;7.834;2023-05-14T11:43:24;2.03;;;1.23;;
15876;SDS011;8037;51.666;7.834;2023-05-14T11:45:53;1.10;;;1.10;;
15876;SDS011;8037;51.666;7.834;2023-05-14T11:48:19;1.13;;;1.13;;
15876;SDS011;8037;51.666;7.834;2023-05-14T11:50:49;2.17;;;1.73;;
15876;SDS011;8037;51.666;7.834;2023-05-14T11:53:19;1.77;;;1.67;;
15876;SDS011;8037;51.666;7.834;2023-05-14T11:55:45;1.77;;;1.67;;
15876;SDS011;8037;51.666;7.834;2023-05-14T11:58:11;1.47;;;1.37;;
15876;SDS011;8037;51.666;7.834;2023-05-14T12:00:38;1.43;;;1.30;;
15876;SDS011;8037;51.666;7.834;2023-05-14T12:03:04;1.67;;;1.57;;
15876;SDS011;8037;51.666;7.834;2023-05-14T12:05:30;3.00;;;2.80;;
15876;SDS011;8037;51.666;7.834;2023-05-14T12:07:56;1.00;;;1.00;;
15876;SDS011;8037;51.666;7.834;2023-05-14T12:10:22;1.60;;;1.50;;
15876;SDS011;8037;51.666;7.834;2023-05-14T12:12:48;1.10;;;1.00;;
15876;SDS011;8037;51.666;7.834;2023-05-14T12:15:14;0.70;;;0.70;;
15876;SDS011;8037;51.666;7.834;2023-05-14T12:17:41;1.40;;;1.30;;
15876;SDS011;8037;51.666;7.834;2023-05-14T12:20:07;1.17;;;1.00;;
15876;SDS011;8037;51.666;7.834;2023-05-14T12:22:37;1.00;;;1.00;;
15876;SDS011;8037;51.666;7.834;2023-05-14T12:25:08;1.13;;;0.90;;
15876;SDS011;8037;51.666;7.834;2023-05-14T12:27:36;1.20;;;1.10;;
15876;SDS011;8037;51.666;7.834;2023-05-14T12:30:03;1.30;;;1.20;;
15876;SDS011;8037;51.666;7.834;2023-05-14T12:32:32;1.30;;;1.20;;
15876;SDS011;8037;51.666;7.834;2023-05-14T12:34:58;1.50;;;1.23;;
15876;SDS011;8037;51.666;7.834;2023-05-14T12:37:27;1.33;;;1.03;;
15876;SDS011;8037;51.666;7.834;2023-05-14T12:39:53;2.20;;;1.20;;
15876;SDS011;8037;51.666;7.834;2023-05-14T12:42:19;0.80;;;0.80;;
15876;SDS011;8037;51.666;7.834;2023-05-14T12:44:46;1.17;;;1.07;;
15876;SDS011;8037;51.666;7.834;2023-05-14T12:47:12;1.20;;;1.10;;
15876;SDS011;8037;51.666;7.834;2023-05-14T12:49:38;0.90;;;0.90;;
15876;SDS011;8037;51.666;7.834;2023-05-14T12:52:03;2.20;;;1.10;;
15876;SDS011;8037;51.666;7.834;2023-05-14T12:54:29;1.23;;;1.13;;
15876;SDS011;8037;51.666;7.834;2023-05-14T12:56:56;0.87;;;0.87;;
15876;SDS011;8037;51.666;7.834;2023-05-14T12:59:22;1.40;;;1.23;;
15876;SDS011;8037;51.666;7.834;2023-05-14T13:01:47;0.80;;;0.80;;
15876;SDS011;8037;51.666;7.834;2023-05-14T13:04:13;1.10;;;1.07;;
15876;SDS011;8037;51.666;7.834;2023-05-14T13:06:39;1.00;;;1.00;;
15876;SDS011;8037;51.666;7.834;2023-05-14T13:09:06;0.93;;;0.93;;
15876;SDS011;8037;51.666;7.834;2023-05-14T13:11:32;1.30;;;1.20;;
15876;SDS011;8037;51.666;7.834;2023-05-14T13:13:58;1.13;;;1.10;;
15876;SDS011;8037;51.666;7.834;2023-05-14T13:16:26;1.50;;;1.40;;
15876;SDS011;8037;51.666;7.834;2023-05-14T13:18:52;1.30;;;1.20;;
15876;SDS011;8037;51.666;7.834;2023-05-14T13:21:18;0.90;;;0.90;;
15876;SDS011;8037;51.666;7.834;2023-05-14T13:23:44;0.80;;;0.80;;
15876;SDS011;8037;51.666;7.834;2023-05-14T13:26:10;1.17;;;1.03;;
15876;SDS011;8037;51.666;7.834;2023-05-14T13:28:36;1.33;;;1.07;;
15876;SDS011;8037;51.666;7.834;2023-05-14T13:31:03;1.07;;;0.67;;
15876;SDS011;8037;51.666;7.834;2023-05-14T13:33:31;1.00;;;0.83;;
15876;SDS011;8037;51.666;7.834;2023-05-14T13:35:57;1.00;;;1.00;;
15876;SDS011;8037;51.666;7.834;2023-05-14T13:38:23;1.27;;;0.90;;
15876;SDS011;8037;51.666;7.834;2023-05-14T13:40:48;1.17;;;1.10;;
15876;SDS011;8037;51.666;7.834;2023-05-14T13:43:14;1.23;;;1.20;;
15876;SDS011;8037;51.666;7.834;2023-05-14T13:45:40;2.40;;;0.97;;
15876;SDS011;8037;51.666;7.834;2023-05-14T13:48:07;1.47;;;1.00;;
15876;SDS011;8037;51.666;7.834;2023-05-14T13:50:32;1.30;;;1.20;;
15876;SDS011;8037;51.666;7.834;2023-05-14T13:52:58;2.20;;;1.10;;
15876;SDS011;8037;51.666;7.834;2023-05-14T13:55:24;1.10;;;1.00;;
15876;SDS011;8037;51.666;7.834;2023-05-14T13:57:50;1.17;;;1.13;;
15876;SDS011;8037;51.666;7.834;2023-05-14T14:00:16;1.80;;;1.10;;
15876;SDS011;8037;51.666;7.834;2023-05-14T14:02:42;1.13;;;1.13;;
15876;SDS011;8037;51.666;7.834;2023-05-14T14:05:08;0.90;;;0.90;;
15876;SDS011;8037;51.666;7.834;2023-05-14T14:07:34;1.00;;;1.00;;
15876;SDS011;8037;51.666;7.834;2023-05-14T14:10:00;1.77;;;1.07;;
15876;SDS011;8037;51.666;7.834;2023-05-14T14:12:26;1.33;;;1.10;;
15876;SDS011;8037;51.666;7.834;2023-05-14T14:14:51;1.47;;;1.37;;
15876;SDS011;8037;51.666;7.834;2023-05-14T14:17:17;1.50;;;1.40;;
15876;SDS011;8037;51.666;7.834;2023-05-14T14:19:43;1.00;;;1.00;;
15876;SDS011;8037;51.666;7.834;2023-05-14T14:22:09;1.33;;;1.23;;
15876;SDS011;8037;51.666;7.834;2023-05-14T14:24:36;1.13;;;1.13;;
15876;SDS011;8037;51.666;7.834;2023-05-14T14:27:02;1.50;;;1.40;;
15876;SDS011;8037;51.666;7.834;2023-05-14T14:29:28;2.10;;;1.10;;
15876;SDS011;8037;51.666;7.834;2023-05-14T14:31:55;1.13;;;1.13;;
15876;SDS011;8037;51.666;7.834;2023-05-14T14:34:21;1.63;;;1.07;;
15876;SDS011;8037;51.666;7.834;2023-05-14T14:36:47;1.10;;;1.10;;
15876;SDS011;8037;51.666;7.834;2023-05-14T14:39:12;1.23;;;1.13;;
15876;SDS011;8037;51.666;7.834;2023-05-14T14:41:38;1.23;;;1.23;;
15876;SDS011;8037;51.666;7.834;2023-05-14T14:44:04;1.97;;;1.37;;
15876;SDS011;8037;51.666;7.834;2023-05-14T14:46:31;12.10;;;7.40;;
15876;SDS011;8037;51.666;7.834;2023-05-14T14:48:57;1.67;;;1.57;;
15876;SDS011;8037;51.666;7.834;2023-05-14T14:51:23;4.23;;;3.80;;
15876;SDS011;8037;51.666;7.834;2023-05-14T14:53:49;2.20;;;2.10;;
15876;SDS011;8037;51.666;7.834;2023-05-14T14:56:15;3.50;;;1.67;;
15876;SDS011;8037;51.666;7.834;2023-05-14T14:58:41;1.50;;;1.33;;
15876;SDS011;8037;51.666;7.834;2023-05-14T15:01:07;1.40;;;1.30;;
15876;SDS011;8037;51.666;7.834;2023-05-14T15:03:32;4.70;;;1.20;;
15876;SDS011;8037;51.666;7.834;2023-05-14T15:05:58;1.13;;;1.13;;
15876;SDS011;8037;51.666;7.834;2023-05-14T15:08:25;0.90;;;0.90;;
15876;SDS011;8037;51.666;7.834;2023-05-14T15:10:51;3.33;;;1.00;;